createdAt,value
2019-05-07T00:01:55.172Z,7.78
2019-05-07T00:04:26.943Z,9.10
2019-05-07T00:06:58.306Z,7.22
2019-05-07T00:09:32.141Z,15.23
2019-05-07T00:12:05.061Z,15.15
2019-05-07T00:14:35.987Z,10.60
2019-05-07T00:17:09.019Z,8.58
2019-05-07T00:19:40.374Z,8.60
2019-05-07T00:22:12.570Z,11.08
2019-05-07T00:24:44.252Z,9.80
2019-05-07T00:27:15.605Z,13.20
2019-05-07T00:29:47.036Z,6.62
2019-05-07T00:32:18.421Z,9.30
2019-05-07T00:35:06.650Z,10.00
2019-05-07T00:37:40.050Z,11.05
2019-05-07T00:40:13.609Z,9.73
2019-05-07T00:43:02.967Z,8.35
2019-05-07T00:45:35.979Z,9.08
2019-05-07T00:48:07.271Z,11.05
2019-05-07T00:50:42.035Z,7.97
2019-05-07T00:53:13.427Z,8.88
2019-05-07T00:55:44.720Z,9.40
2019-05-07T00:58:16.065Z,10.08
2019-05-07T01:00:47.463Z,8.98
2019-05-07T01:03:18.787Z,11.75
2019-05-07T01:05:52.496Z,10.05
2019-05-07T01:08:23.788Z,9.65
2019-05-07T01:10:55.061Z,10.65
2019-05-07T01:13:26.445Z,10.03
2019-05-07T01:15:57.897Z,10.65
2019-05-07T01:18:29.275Z,9.90
2019-05-07T01:21:02.387Z,8.58
2019-05-07T01:23:34.880Z,12.40
2019-05-07T01:26:06.533Z,13.60
2019-05-07T01:28:55.581Z,11.75
2019-05-07T01:31:33.039Z,9.83
2019-05-07T01:34:14.986Z,12.37
2019-05-07T01:36:46.318Z,11.90
2019-05-07T01:39:23.009Z,7.33
2019-05-07T01:41:53.659Z,10.23
2019-05-07T01:44:25.911Z,10.23
2019-05-07T01:46:57.348Z,10.20
2019-05-07T01:49:28.706Z,13.22
2019-05-07T01:52:02.301Z,10.25
2019-05-07T01:54:33.509Z,12.85
2019-05-07T01:57:04.886Z,12.68
2019-05-07T01:59:36.142Z,14.30
2019-05-07T02:02:14.851Z,20.62
2019-05-07T02:04:47.840Z,26.10
2019-05-07T02:07:22.591Z,23.25
2019-05-07T02:10:03.963Z,15.65
2019-05-07T02:12:36.959Z,12.30
2019-05-07T02:15:09.413Z,12.93
2019-05-07T02:17:43.011Z,8.88
2019-05-07T02:20:14.187Z,9.68
2019-05-07T02:22:45.457Z,10.75
2019-05-07T02:25:16.728Z,9.50
2019-05-07T02:27:47.986Z,8.23
2019-05-07T02:30:19.235Z,8.25
2019-05-07T02:32:53.682Z,13.83
2019-05-07T02:35:23.847Z,20.92
2019-05-07T02:38:05.975Z,15.55
2019-05-07T02:40:43.314Z,13.68
2019-05-07T02:43:14.847Z,15.32
2019-05-07T02:46:17.499Z,12.30
2019-05-07T02:48:53.642Z,12.07
2019-05-07T02:51:35.840Z,12.03
2019-05-07T02:54:25.865Z,8.10
2019-05-07T02:56:57.169Z,10.63
2019-05-07T02:59:29.376Z,8.88
2019-05-07T03:02:03.355Z,12.23
2019-05-07T03:04:33.654Z,13.03
2019-05-07T03:07:05.278Z,11.60
2019-05-07T03:09:36.697Z,11.55
2019-05-07T03:12:08.944Z,18.77
2019-05-07T03:14:43.559Z,17.80
2019-05-07T03:17:13.750Z,14.73
2019-05-07T03:19:46.736Z,14.95
2019-05-07T03:22:17.981Z,16.82
2019-05-07T03:24:57.153Z,12.90
2019-05-07T03:27:28.430Z,14.78
2019-05-07T03:30:04.411Z,14.35
2019-05-07T03:32:38.704Z,17.50
2019-05-07T03:35:28.140Z,17.60
2019-05-07T03:38:03.078Z,16.23
2019-05-07T03:40:34.443Z,14.70
2019-05-07T03:43:06.492Z,18.07
2019-05-07T03:45:56.147Z,14.33
2019-05-07T03:48:29.133Z,13.43
2019-05-07T03:51:03.401Z,14.03
2019-05-07T03:53:34.096Z,15.78
2019-05-07T03:56:05.723Z,10.28
2019-05-07T03:58:37.040Z,10.08
2019-05-07T04:01:08.370Z,12.47
2019-05-07T04:03:39.656Z,8.50
2019-05-07T04:06:12.800Z,11.30
2019-05-07T04:08:44.015Z,23.15
2019-05-07T04:11:15.342Z,18.52
2019-05-07T04:13:46.601Z,14.58
2019-05-07T04:16:17.930Z,9.75
2019-05-07T04:18:49.201Z,17.80
2019-05-07T04:21:22.984Z,16.00
2019-05-07T04:23:55.205Z,14.68
2019-05-07T04:26:44.733Z,10.78
2019-05-07T04:29:17.737Z,14.87
2019-05-07T04:31:49.122Z,16.00
2019-05-07T04:34:24.982Z,17.23
2019-05-07T04:36:56.420Z,11.63
2019-05-07T04:39:27.839Z,9.18
2019-05-07T04:41:59.301Z,9.90
2019-05-07T04:44:33.183Z,9.48
2019-05-07T04:47:04.645Z,10.95
2019-05-07T04:49:36.986Z,15.85
2019-05-07T04:52:12.480Z,13.00
2019-05-07T04:54:43.827Z,14.53
2019-05-07T04:57:27.598Z,16.50
2019-05-07T05:00:02.584Z,14.43
2019-05-07T05:02:34.206Z,15.43
2019-05-07T05:05:05.845Z,14.23
2019-05-07T05:07:37.217Z,9.48
2019-05-07T05:10:08.876Z,9.28
2019-05-07T05:12:42.674Z,7.67
2019-05-07T05:15:13.260Z,8.15
2019-05-07T05:17:50.455Z,10.40
2019-05-07T05:20:22.071Z,9.38
2019-05-07T05:23:07.110Z,9.38
2019-05-07T05:25:43.230Z,11.70
2019-05-07T05:28:15.719Z,10.23
2019-05-07T05:30:48.674Z,14.80
2019-05-07T05:33:20.026Z,7.65
2019-05-07T05:35:52.537Z,9.70
2019-05-07T05:38:23.973Z,7.45
2019-05-07T05:40:55.317Z,14.30
2019-05-07T05:43:31.922Z,8.98
2019-05-07T05:46:05.133Z,10.98
2019-05-07T05:48:36.537Z,8.03
2019-05-07T05:51:12.447Z,8.48
2019-05-07T05:53:52.423Z,10.90
2019-05-07T05:56:28.509Z,9.45
2019-05-07T05:59:07.284Z,8.13
2019-05-07T06:01:56.685Z,11.83
2019-05-07T06:04:32.929Z,12.68
2019-05-07T06:07:13.938Z,8.68
2019-05-07T06:09:43.697Z,14.73
2019-05-07T06:12:25.786Z,9.55
2019-05-07T06:14:58.931Z,9.18
2019-05-07T06:17:48.406Z,16.80
2019-05-07T06:20:36.591Z,14.23
2019-05-07T06:23:22.620Z,10.45
2019-05-07T06:25:55.072Z,10.43
2019-05-07T06:28:26.333Z,11.60
2019-05-07T06:30:57.620Z,11.08
2019-05-07T06:33:29.056Z,10.88
2019-05-07T06:36:02.674Z,10.03
2019-05-07T06:38:35.128Z,9.98
2019-05-07T06:41:08.088Z,9.00
2019-05-07T06:43:42.154Z,11.55
2019-05-07T06:46:13.612Z,9.40
2019-05-07T06:48:46.187Z,12.90
2019-05-07T06:51:17.903Z,12.45
2019-05-07T06:53:49.308Z,10.00
2019-05-07T06:56:22.899Z,11.65
2019-05-07T06:59:02.208Z,11.40
2019-05-07T07:01:52.984Z,12.30
2019-05-07T07:04:26.089Z,8.95
2019-05-07T07:06:58.988Z,10.78
2019-05-07T07:09:37.837Z,17.35
2019-05-07T07:12:21.923Z,11.03
2019-05-07T07:14:52.737Z,11.70
2019-05-07T07:17:25.147Z,10.03
2019-05-07T07:19:56.431Z,9.50
2019-05-07T07:22:27.784Z,10.03
2019-05-07T07:24:59.059Z,10.08
2019-05-07T07:27:32.206Z,18.12
2019-05-07T07:30:06.127Z,14.33
2019-05-07T07:32:39.112Z,9.73
2019-05-07T07:35:12.975Z,17.87
2019-05-07T07:37:44.430Z,14.77
2019-05-07T07:40:18.121Z,12.68
2019-05-07T07:42:52.043Z,10.55
2019-05-07T07:45:23.633Z,8.80
2019-05-07T07:47:54.987Z,13.55
2019-05-07T07:50:26.303Z,13.05
2019-05-07T07:52:57.644Z,9.65
2019-05-07T07:55:32.908Z,41.30
2019-05-07T07:58:05.252Z,14.93
2019-05-07T08:00:38.177Z,11.43
2019-05-07T08:03:13.214Z,7.42
2019-05-07T08:05:44.041Z,10.08
2019-05-07T08:08:15.395Z,10.43
2019-05-07T08:10:46.750Z,7.37
2019-05-07T08:13:18.999Z,8.23
2019-05-07T08:15:51.916Z,5.22
2019-05-07T08:18:23.411Z,6.47
2019-05-07T08:20:54.817Z,11.20
2019-05-07T08:23:26.174Z,8.75
2019-05-07T08:25:57.470Z,9.93
2019-05-07T08:28:28.725Z,8.58
2019-05-07T08:31:04.662Z,6.83
2019-05-07T08:33:43.530Z,11.68
2019-05-07T08:36:16.457Z,7.75
2019-05-07T08:38:52.943Z,9.35
2019-05-07T08:41:26.605Z,12.03
2019-05-07T08:44:10.651Z,9.05
2019-05-07T08:49:15.238Z,9.45
2019-05-07T08:51:48.266Z,8.08
2019-05-07T08:54:19.518Z,6.85
2019-05-07T08:56:52.759Z,6.75
2019-05-07T08:59:24.250Z,9.70
2019-05-07T09:01:55.612Z,11.08
2019-05-07T09:04:26.959Z,13.03
2019-05-07T09:06:58.329Z,5.28
2019-05-07T09:09:29.596Z,9.40
2019-05-07T09:12:02.995Z,15.18
2019-05-07T09:14:33.909Z,9.03
2019-05-07T09:17:05.280Z,11.28
2019-05-07T09:19:48.309Z,11.57
2019-05-07T09:22:12.701Z,19.35
2019-05-07T09:24:44.158Z,12.85
2019-05-07T09:27:17.231Z,15.63
2019-05-07T09:29:52.856Z,10.03
2019-05-07T09:32:35.076Z,9.05
2019-05-07T09:35:13.970Z,7.60
2019-05-07T09:37:45.238Z,14.23
2019-05-07T09:40:16.541Z,10.95
2019-05-07T09:42:47.919Z,14.73
2019-05-07T09:45:19.258Z,12.30
2019-05-07T09:47:52.220Z,15.88
2019-05-07T09:50:23.832Z,9.58
2019-05-07T09:52:55.273Z,10.55
2019-05-07T09:55:26.602Z,8.70
2019-05-07T09:57:57.934Z,17.65
2019-05-07T10:00:32.006Z,9.38
2019-05-07T10:03:03.334Z,21.00
2019-05-07T10:05:34.678Z,8.20
2019-05-07T10:08:06.114Z,14.87
2019-05-07T10:10:37.686Z,14.80
2019-05-07T10:13:12.224Z,14.40
2019-05-07T10:15:43.724Z,13.10
2019-05-07T10:18:16.429Z,19.77
2019-05-07T10:20:47.892Z,10.60
2019-05-07T10:23:23.083Z,11.95
2019-05-07T10:25:55.239Z,10.98
2019-05-07T10:28:28.209Z,8.75
2019-05-07T10:30:59.584Z,15.08
2019-05-07T10:33:31.961Z,13.15
2019-05-07T10:36:05.423Z,14.38
2019-05-07T10:38:36.805Z,17.45
2019-05-07T10:41:08.190Z,12.10
2019-05-07T10:43:39.815Z,19.98
2019-05-07T10:46:12.954Z,27.13
2019-05-07T10:48:47.203Z,14.20
2019-05-07T10:51:18.601Z,15.55
2019-05-07T10:53:51.803Z,15.55
2019-05-07T10:56:24.282Z,16.95
2019-05-07T10:58:55.893Z,13.30
2019-05-07T11:01:37.975Z,11.95
2019-05-07T11:04:09.264Z,14.80
2019-05-07T11:06:48.856Z,12.07
2019-05-07T11:09:30.289Z,9.60
2019-05-07T11:12:02.557Z,19.12
2019-05-07T11:14:34.118Z,12.35
2019-05-07T11:17:23.189Z,11.97
2019-05-07T11:19:54.558Z,13.30
2019-05-07T11:22:26.731Z,12.20
2019-05-07T11:24:58.111Z,12.45
2019-05-07T11:27:32.834Z,11.03
2019-05-07T11:30:04.747Z,12.60
2019-05-07T11:32:36.173Z,8.43
2019-05-07T11:35:08.327Z,16.80
2019-05-07T11:37:39.707Z,13.60
2019-05-07T11:40:13.106Z,10.72
2019-05-07T11:43:02.477Z,8.38
2019-05-07T11:45:47.936Z,14.28
2019-05-07T11:48:22.128Z,12.43
2019-05-07T11:51:07.674Z,11.78
2019-05-07T11:53:41.889Z,14.23
2019-05-07T11:56:14.636Z,20.68
2019-05-07T11:58:46.065Z,68.15
2019-05-07T12:01:19.414Z,20.27
2019-05-07T12:03:52.046Z,29.65
2019-05-07T12:06:24.499Z,19.40
2019-05-07T12:08:55.836Z,19.52
2019-05-07T12:11:27.267Z,19.23
2019-05-07T12:13:58.692Z,18.45
2019-05-07T12:16:32.120Z,25.62
2019-05-07T12:19:03.225Z,34.53
2019-05-07T12:21:35.317Z,32.30
2019-05-07T12:24:06.897Z,16.15
2019-05-07T12:26:41.712Z,16.80
2019-05-07T12:29:13.191Z,20.70
2019-05-07T12:31:46.260Z,17.85
2019-05-07T12:34:19.277Z,15.53
2019-05-07T12:36:52.414Z,15.83
2019-05-07T12:39:23.964Z,14.60
2019-05-07T12:41:55.354Z,10.30
2019-05-07T12:44:26.871Z,15.68
2019-05-07T12:46:58.318Z,22.58
2019-05-07T12:49:29.790Z,15.10
2019-05-07T12:52:09.897Z,23.05
2019-05-07T12:54:45.593Z,15.03
2019-05-07T12:57:16.978Z,26.05
2019-05-07T12:59:49.679Z,20.23
2019-05-07T13:02:37.084Z,17.37
2019-05-07T13:04:58.036Z,18.65
2019-05-07T13:07:32.417Z,17.00
2019-05-07T13:10:08.234Z,19.02
2019-05-07T13:12:39.189Z,18.23
2019-05-07T13:15:24.389Z,21.85
2019-05-07T13:17:43.936Z,13.30
2019-05-07T13:20:15.678Z,13.30
2019-05-07T13:22:47.078Z,14.25
2019-05-07T13:25:18.744Z,14.53
2019-05-07T13:27:52.110Z,20.90
2019-05-07T13:30:24.281Z,11.38
2019-05-07T13:32:56.890Z,18.62
2019-05-07T13:35:28.333Z,20.43
2019-05-07T13:38:04.288Z,11.95
2019-05-07T13:40:37.436Z,17.05
2019-05-07T13:43:23.081Z,18.87
2019-05-07T13:45:56.211Z,17.85
2019-05-07T13:48:28.767Z,26.20
2019-05-07T13:51:01.790Z,25.65
2019-05-07T13:53:33.213Z,23.25
2019-05-07T13:56:04.897Z,18.98
2019-05-07T13:58:36.298Z,22.55
2019-05-07T14:01:12.247Z,19.90
2019-05-07T14:03:43.622Z,20.52
2019-05-07T14:06:16.746Z,24.37
2019-05-07T14:08:48.125Z,22.77
2019-05-07T14:11:22.342Z,31.42
2019-05-07T14:13:53.404Z,30.65
2019-05-07T14:16:24.729Z,22.15
2019-05-07T14:18:56.107Z,22.32
2019-05-07T14:21:27.529Z,22.17
2019-05-07T14:23:58.904Z,32.10
2019-05-07T14:26:32.441Z,27.67
2019-05-07T14:29:03.270Z,33.48
2019-05-07T14:31:34.672Z,27.45
2019-05-07T14:34:12.507Z,23.25
2019-05-07T14:36:45.470Z,25.10
2019-05-07T14:39:16.935Z,25.05
2019-05-07T14:41:51.925Z,26.30
2019-05-07T14:44:23.276Z,24.20
2019-05-07T14:46:54.624Z,32.17
2019-05-07T14:49:26.015Z,35.45
2019-05-07T14:51:57.357Z,31.12
2019-05-07T14:54:28.638Z,33.50
2019-05-07T14:57:02.160Z,33.80
2019-05-07T14:59:33.194Z,36.17
2019-05-07T15:02:04.948Z,26.73
2019-05-07T15:04:36.296Z,32.45
2019-05-07T15:07:07.921Z,18.92
2019-05-07T15:09:42.463Z,14.70
2019-05-07T15:12:15.532Z,20.08
2019-05-07T15:14:47.023Z,20.02
2019-05-07T15:17:26.000Z,16.62
2019-05-07T15:19:57.401Z,18.00
2019-05-07T15:22:47.173Z,21.17
2019-05-07T15:25:13.616Z,35.33
2019-05-07T15:27:46.439Z,38.35
2019-05-07T15:30:18.210Z,22.60
2019-05-07T15:32:49.619Z,24.40
2019-05-07T15:35:20.954Z,21.27
2019-05-07T15:37:52.281Z,24.80
2019-05-07T15:40:23.850Z,13.18
2019-05-07T15:42:55.144Z,14.87
2019-05-07T15:45:26.404Z,12.55
2019-05-07T15:47:58.734Z,15.90
2019-05-07T15:50:32.057Z,14.15
2019-05-07T15:53:04.902Z,14.53
2019-05-07T15:55:36.242Z,16.00
2019-05-07T15:58:07.600Z,22.67
2019-05-07T16:00:39.198Z,22.90
2019-05-07T16:03:12.320Z,27.67
2019-05-07T16:05:43.841Z,39.78
2019-05-07T16:08:16.650Z,32.75
2019-05-07T16:10:48.178Z,45.65
2019-05-07T16:13:22.371Z,15.40
2019-05-07T16:15:54.976Z,17.90
2019-05-07T16:18:32.666Z,19.27
2019-05-07T16:21:05.217Z,19.12
2019-05-07T16:23:36.618Z,18.87
2019-05-07T16:26:07.916Z,27.80
2019-05-07T16:28:39.253Z,18.37
2019-05-07T16:31:10.522Z,19.48
2019-05-07T16:33:43.078Z,22.80
2019-05-07T16:36:14.368Z,17.75
2019-05-07T16:38:47.545Z,21.23
2019-05-07T16:41:18.830Z,16.20
2019-05-07T16:43:52.281Z,20.45
2019-05-07T16:46:23.247Z,19.67
2019-05-07T16:48:54.656Z,13.43
2019-05-07T16:51:26.027Z,19.62
2019-05-07T16:53:57.454Z,16.82
2019-05-07T16:56:29.056Z,18.75
2019-05-07T16:59:02.067Z,19.37
2019-05-07T17:01:33.426Z,18.52
2019-05-07T17:04:05.402Z,40.17
2019-05-07T17:06:36.904Z,27.40
2019-05-07T17:09:09.900Z,22.00
2019-05-07T17:11:43.463Z,16.35
2019-05-07T17:14:14.196Z,19.95
2019-05-07T17:16:47.320Z,18.20
2019-05-07T17:19:18.762Z,23.70
2019-05-07T17:21:51.958Z,20.57
2019-05-07T17:24:23.278Z,17.73
2019-05-07T17:26:54.644Z,18.77
2019-05-07T17:29:25.976Z,23.60
2019-05-07T17:31:57.255Z,16.77
2019-05-07T17:34:28.566Z,18.25
2019-05-07T17:37:01.988Z,16.95
2019-05-07T17:39:33.105Z,19.82
2019-05-07T17:42:04.466Z,21.23
2019-05-07T17:44:37.873Z,17.12
2019-05-07T17:47:09.220Z,15.18
2019-05-07T17:49:41.806Z,20.77
2019-05-07T17:52:14.072Z,14.05
2019-05-07T17:54:45.925Z,20.52
2019-05-07T17:57:18.896Z,19.50
2019-05-07T17:59:52.492Z,17.20
2019-05-07T18:02:25.248Z,22.25
2019-05-07T18:04:56.677Z,15.70
2019-05-07T18:07:28.028Z,19.30
2019-05-07T18:09:59.516Z,22.52
2019-05-07T18:12:32.019Z,24.18
2019-05-07T18:15:04.848Z,25.57
2019-05-07T18:17:43.672Z,23.83
2019-05-07T18:20:15.251Z,23.47
2019-05-07T18:22:46.670Z,33.65
2019-05-07T18:25:18.229Z,38.58
2019-05-07T18:27:49.611Z,26.30
2019-05-07T18:30:23.529Z,27.73
2019-05-07T18:33:02.415Z,33.48
2019-05-07T18:35:34.085Z,32.23
2019-05-07T18:38:05.538Z,35.55
2019-05-07T18:40:38.595Z,35.40
2019-05-07T18:43:12.080Z,31.73
2019-05-07T18:45:43.256Z,33.02
2019-05-07T18:48:14.642Z,42.40
2019-05-07T18:50:46.317Z,35.10
2019-05-07T18:53:18.036Z,40.70
2019-05-07T18:55:51.601Z,43.50
2019-05-07T18:58:22.797Z,36.88
2019-05-07T19:01:07.964Z,36.77
2019-05-07T19:03:39.433Z,34.43
2019-05-07T19:06:13.515Z,34.53
2019-05-07T19:08:44.590Z,34.13
2019-05-07T19:11:16.118Z,36.23
2019-05-07T19:13:47.684Z,33.40
2019-05-07T19:16:19.213Z,40.23
2019-05-07T19:18:50.617Z,35.38
2019-05-07T19:21:22.478Z,32.85
2019-05-07T19:23:54.186Z,31.10
2019-05-07T19:26:25.637Z,36.48
2019-05-07T19:28:57.134Z,37.90
2019-05-07T19:31:28.732Z,36.00
2019-05-07T19:34:00.289Z,31.62
2019-05-07T19:36:32.243Z,41.48
2019-05-07T19:39:05.350Z,28.57
2019-05-07T19:41:37.233Z,36.90
2019-05-07T19:44:09.716Z,32.70
2019-05-07T19:46:41.142Z,30.12
2019-05-07T19:49:12.612Z,30.15
2019-05-07T19:51:44.109Z,30.50
2019-05-07T19:54:15.583Z,31.25
2019-05-07T19:56:47.098Z,30.27
2019-05-07T19:59:18.706Z,36.85
2019-05-07T20:01:51.913Z,32.55
2019-05-07T20:04:23.349Z,42.62
2019-05-07T20:06:54.840Z,38.98
2019-05-07T20:09:28.551Z,29.23
2019-05-07T20:12:00.043Z,32.20
2019-05-07T20:14:33.065Z,29.00
2019-05-07T20:17:05.104Z,36.53
2019-05-07T20:19:37.043Z,36.05
2019-05-07T20:22:08.982Z,37.95
2019-05-07T20:24:41.797Z,43.30
2019-05-07T20:27:13.582Z,49.05
2019-05-07T20:29:45.115Z,67.25
2019-05-07T20:32:16.802Z,51.60
2019-05-07T20:34:48.429Z,56.30
2019-05-07T20:37:21.523Z,48.87
2019-05-07T20:39:53.222Z,31.75
2019-05-07T20:42:26.319Z,49.58
2019-05-07T20:44:59.930Z,53.10
2019-05-07T20:47:32.539Z,55.30
2019-05-07T20:50:06.676Z,55.75
2019-05-07T20:52:38.268Z,63.23
2019-05-07T20:55:27.965Z,52.48
2019-05-07T20:57:51.052Z,57.50
2019-05-07T21:00:25.015Z,53.40
2019-05-07T21:03:14.891Z,60.43
2019-05-07T21:05:46.328Z,54.45
2019-05-07T21:08:18.867Z,57.00
2019-05-07T21:10:50.244Z,52.05
2019-05-07T21:13:28.482Z,49.55
2019-05-07T21:15:55.084Z,49.13
2019-05-07T21:18:26.647Z,53.28
2019-05-07T21:20:58.113Z,44.35
2019-05-07T21:23:29.621Z,43.75
2019-05-07T21:26:02.187Z,42.10
2019-05-07T21:28:33.926Z,40.95
2019-05-07T21:31:05.289Z,42.08
2019-05-07T21:33:37.599Z,49.45
2019-05-07T21:36:09.136Z,61.37
2019-05-07T21:38:42.548Z,61.25
2019-05-07T21:41:13.839Z,65.72
2019-05-07T21:43:46.612Z,51.92
2019-05-07T21:46:17.976Z,61.30
2019-05-07T21:48:51.777Z,54.88
2019-05-07T21:51:23.697Z,58.73
2019-05-07T21:53:59.854Z,54.42
2019-05-07T21:56:32.955Z,53.20
2019-05-07T21:59:06.046Z,51.68
2019-05-07T22:01:43.403Z,55.50
2019-05-07T22:06:45.578Z,34.13
2019-05-07T22:09:17.578Z,32.55
2019-05-07T22:11:49.024Z,31.57
2019-05-07T22:14:22.317Z,35.90
2019-05-07T22:16:54.640Z,33.55
2019-05-07T22:19:26.278Z,31.12
2019-05-07T22:21:57.676Z,28.23
2019-05-07T22:24:29.191Z,23.87
2019-05-07T22:27:01.739Z,26.42
2019-05-07T22:29:33.752Z,25.52
2019-05-07T22:32:12.650Z,25.32
2019-05-07T22:34:51.851Z,22.65
2019-05-07T22:37:26.215Z,25.68
2019-05-07T22:40:07.010Z,22.32
2019-05-07T22:42:39.467Z,20.88
2019-05-07T22:45:12.128Z,25.27
2019-05-07T22:47:43.875Z,19.50
2019-05-07T22:50:15.495Z,22.55
2019-05-07T22:52:46.959Z,21.33
2019-05-07T22:55:18.372Z,25.25
2019-05-07T22:57:54.391Z,21.33
2019-05-07T23:00:32.123Z,25.52
2019-05-07T23:03:03.716Z,21.10
2019-05-07T23:05:35.226Z,21.07
2019-05-07T23:08:06.679Z,21.25
2019-05-07T23:10:38.105Z,23.83
2019-05-07T23:13:09.413Z,19.35
2019-05-07T23:15:42.919Z,21.10
2019-05-07T23:18:14.132Z,21.80
2019-05-07T23:20:45.570Z,28.60
2019-05-07T23:23:16.965Z,34.27
2019-05-07T23:25:48.456Z,30.88
2019-05-07T23:28:19.968Z,37.20
2019-05-07T23:30:51.933Z,39.83
2019-05-07T23:33:23.497Z,35.38
2019-05-07T23:35:55.042Z,29.63
2019-05-07T23:38:26.555Z,30.90
2019-05-07T23:41:08.449Z,24.70
2019-05-07T23:43:40.015Z,25.48
2019-05-07T23:46:12.835Z,23.25
2019-05-07T23:48:44.450Z,24.57
2019-05-07T23:51:15.984Z,21.15
2019-05-07T23:53:47.384Z,29.37
2019-05-07T23:56:18.928Z,21.57
2019-05-07T23:58:52.445Z,25.68
